Station History

Weather Underground - logo

Station Historical Data
Daily Summary for December 31, 2017 Units:  Metric    English   Both
« Previous Day
Next Day »
Daily Weekly Monthly Yearly Custom
  High: Low: Average:
Temperature: 19.7 °C 3.2 °C 9.6 °C
Dew Point: 6.9 °C 1.8 °C 4.2 °C
Humidity: 93 % 37 % 73 %
Wind Speed: 3.7 km/h 0 km/h 0.3 km/h
Wind Gust: 3.7 km/h - -
Wind:- - SW
Pressure: 1022.2 hPa 1017.2 hPa -
Precipitation: 0 mm    
Historical Graphs
 
 
Tabular Data for December 31, 2017
Time Temperature Dew Point Pressure Wind Wind Speed Wind Gust Humidity Rainfall Rate (Hourly)
00:04 5.8 °C 3.8 °C 1017.8 hPa Calm     87 % 0 mm
00:09 5.9 °C 3.9 °C 1017.8 hPa Calm     87 % 0 mm
00:11 5.9 °C 3.9 °C 1017.8 hPa Calm     87 % 0 mm
00:15 5.9 °C 3.7 °C 1017.8 hPa Calm     86 % 0 mm
00:20 5.6 °C 3.4 °C 1017.8 hPa Calm     86 % 0 mm
00:25 5.6 °C 3.6 °C 1017.5 hPa Calm     87 % 0 mm
00:30 5.7 °C 3.7 °C 1017.5 hPa Calm     87 % 0 mm
00:33 5.8 °C 3.8 °C 1017.5 hPa Calm     87 % 0 mm
00:35 5.8 °C 3.8 °C 1017.5 hPa Calm     87 % 0 mm
00:40 5.9 °C 3.8 °C 1017.5 hPa Calm     86 % 0 mm
00:41 5.9 °C 3.8 °C 1017.5 hPa Calm     86 % 0 mm
00:46 5.8 °C 3.4 °C 1017.5 hPa Calm     85 % 0 mm
00:51 5.7 °C 3.5 °C 1017.5 hPa Calm     86 % 0 mm
00:56 5.7 °C 3.5 °C 1017.5 hPa Calm     86 % 0 mm
01:01 5.6 °C 3.4 °C 1017.5 hPa Calm     86 % 0 mm
01:06 5.4 °C 3.2 °C 1017.5 hPa Calm     86 % 0 mm
01:11 5.3 °C 3.3 °C 1017.5 hPa Calm     87 % 0 mm
01:12 5.3 °C 3.3 °C 1017.5 hPa Calm     87 % 0 mm
01:17 5.4 °C 3.4 °C 1017.5 hPa Calm     87 % 0 mm
01:18 5.4 °C 3.4 °C 1017.5 hPa Calm     87 % 0 mm
01:19 5.4 °C 3.4 °C 1017.5 hPa Calm     87 % 0 mm
01:24 5.3 °C 3.3 °C 1017.5 hPa Calm     87 % 0 mm
01:27 5.3 °C 3.3 °C 1017.5 hPa Calm     87 % 0 mm
01:32 5.2 °C 3.2 °C 1017.5 hPa Calm     87 % 0 mm
01:33 5.2 °C 3.2 °C 1017.8 hPa Calm     87 % 0 mm
01:39 5.1 °C 3.1 °C 1017.8 hPa Calm     87 % 0 mm
01:40 5.1 °C 3.1 °C 1017.8 hPa Calm     87 % 0 mm
01:45 5.1 °C 3.2 °C 1017.8 hPa Calm     88 % 0 mm
01:46 5.1 °C 3.2 °C 1017.8 hPa Calm     88 % 0 mm
01:51 4.9 °C 3.1 °C 1017.8 hPa Calm     88 % 0 mm
01:52 4.9 °C 3.1 °C 1017.8 hPa Calm     88 % 0 mm
01:55 4.8 °C 3 °C 1017.8 hPa Calm     88 % 0 mm
01:59 4.8 °C 2.9 °C 1017.8 hPa Calm     88 % 0 mm
02:04 4.7 °C 3.1 °C 1017.8 hPa Calm     89 % 0 mm
02:05 4.7 °C 3.1 °C 1017.8 hPa Calm     89 % 0 mm
02:10 4.7 °C 3 °C 1017.8 hPa Calm     89 % 0 mm
02:11 4.7 °C 3 °C 1017.8 hPa Calm     89 % 0 mm
02:16 4.6 °C 2.9 °C 1018.2 hPa Calm     89 % 0 mm
02:19 4.5 °C 2.8 °C 1018.2 hPa West 1.9 km/h 1.9 km/h 89 % 0 mm
02:24 4.3 °C 2.6 °C 1018.2 hPa West 1.9 km/h   89 % 0 mm
02:25 4.2 °C 2.6 °C 1018.2 hPa West 1.9 km/h   89 % 0 mm
02:30 4.1 °C 2.4 °C 1018.2 hPa Calm     89 % 0 mm
02:31 4.1 °C 2.4 °C 1018.2 hPa Calm     89 % 0 mm
02:36 3.9 °C 2.4 °C 1018.2 hPa Calm     90 % 0 mm
02:37 4 °C 2.5 °C 1018.2 hPa Calm     90 % 0 mm
02:42 4 °C 2.5 °C 1018.2 hPa Calm     90 % 0 mm
02:45 4 °C 2.7 °C 1018.2 hPa Calm     91 % 0 mm
02:47 4 °C 2.7 °C 1018.2 hPa Calm     91 % 0 mm
02:52 4.1 °C 2.7 °C 1018.2 hPa Calm     91 % 0 mm
02:53 4.1 °C 2.7 °C 1018.2 hPa Calm     91 % 0 mm
02:58 4.2 °C 2.9 °C 1017.8 hPa Calm     91 % 0 mm
03:03 4.3 °C 3 °C 1017.8 hPa Calm     91 % 0 mm
03:08 4.4 °C 3.1 °C 1017.8 hPa Calm     91 % 0 mm
03:09 4.4 °C 3.1 °C 1017.8 hPa Calm     91 % 0 mm
03:14 4.4 °C 2.9 °C 1017.8 hPa Calm     90 % 0 mm
03:15 4.5 °C 3 °C 1017.8 hPa Calm     90 % 0 mm
03:20 4.6 °C 3.1 °C 1017.8 hPa Calm     90 % 0 mm
03:25 4.7 °C 3.2 °C 1017.8 hPa Calm     90 % 0 mm
03:26 4.7 °C 3.2 °C 1017.8 hPa Calm     90 % 0 mm
03:31 4.8 °C 3.3 °C 1017.5 hPa Calm     90 % 0 mm
03:32 4.8 °C 3.3 °C 1017.5 hPa Calm     90 % 0 mm
03:36 4.8 °C 3.3 °C 1017.8 hPa Calm     90 % 0 mm
03:37 4.8 °C 3.3 °C 1017.8 hPa Calm     90 % 0 mm
03:42 4.8 °C 3.1 °C 1017.5 hPa Calm     89 % 0 mm
03:43 4.7 °C 3.1 °C 1017.5 hPa Calm     89 % 0 mm
03:48 4.6 °C 2.9 °C 1017.5 hPa Calm     89 % 0 mm
03:53 4.5 °C 2.8 °C 1017.5 hPa Calm     89 % 0 mm
03:54 4.5 °C 2.8 °C 1017.5 hPa Calm     89 % 0 mm
03:59 4.4 °C 2.9 °C 1017.8 hPa Calm     90 % 0 mm
04:02 4.4 °C 2.7 °C 1017.8 hPa Calm     89 % 0 mm
04:07 4.2 °C 2.7 °C 1017.8 hPa Calm     90 % 0 mm
04:12 4.2 °C 2.9 °C 1017.8 hPa Calm     91 % 0 mm
04:13 4.2 °C 2.9 °C 1017.8 hPa Calm     91 % 0 mm
04:18 4.3 °C 2.9 °C 1017.8 hPa Calm     91 % 0 mm
04:21 4.3 °C 2.9 °C 1017.8 hPa Calm     91 % 0 mm
04:23 4.2 °C 2.9 °C 1017.8 hPa Calm     91 % 0 mm
04:26 4.3 °C 2.9 °C 1017.8 hPa Calm     91 % 0 mm
04:29 4.3 °C 3.1 °C 1017.8 hPa Calm     92 % 0 mm
04:32 4.3 °C 3.2 °C 1017.8 hPa Calm     92 % 0 mm
04:37 4.4 °C 3.2 °C 1017.8 hPa Calm     92 % 0 mm
04:38 4.4 °C 3.2 °C 1017.8 hPa Calm     92 % 0 mm
04:43 4.4 °C 3.1 °C 1017.8 hPa Calm     91 % 0 mm
04:44 4.4 °C 3.1 °C 1017.8 hPa Calm     91 % 0 mm
04:49 4.4 °C 3.1 °C 1017.8 hPa Calm     91 % 0 mm
04:51 4.4 °C 3.1 °C 1017.8 hPa Calm     91 % 0 mm
04:55 4.4 °C 3.1 °C 1017.8 hPa Calm     91 % 0 mm
04:56 4.4 °C 3.1 °C 1017.8 hPa Calm     91 % 0 mm
05:01 4.4 °C 2.9 °C 1018.2 hPa Calm     90 % 0 mm
05:05 4.4 °C 3.1 °C 1018.2 hPa Calm     91 % 0 mm
05:09 4.4 °C 3.1 °C 1018.2 hPa Calm     91 % 0 mm
05:11 4.4 °C 3.1 °C 1018.2 hPa Calm     91 % 0 mm
05:16 4.6 °C 3.3 °C 1018.2 hPa Calm     91 % 0 mm
05:17 4.6 °C 3.3 °C 1018.2 hPa Calm     91 % 0 mm
05:22 4.7 °C 3.3 °C 1018.5 hPa Calm     91 % 0 mm
05:24 4.7 °C 3.3 °C 1018.5 hPa Calm     91 % 0 mm
05:27 4.6 °C 3.3 °C 1018.5 hPa Calm     91 % 0 mm
05:30 4.6 °C 3.3 °C 1018.5 hPa Calm     91 % 0 mm
05:35 4.6 °C 3.3 °C 1018.5 hPa Calm     91 % 0 mm
05:40 4.6 °C 3.2 °C 1018.5 hPa Calm     91 % 0 mm
05:42 4.6 °C 3.1 °C 1018.5 hPa Calm     90 % 0 mm
05:43 4.6 °C 3.1 °C 1018.5 hPa Calm     90 % 0 mm
05:48 4.5 °C 3 °C 1018.2 hPa Calm     90 % 0 mm
05:52 4.5 °C 3.2 °C 1018.5 hPa Calm     91 % 0 mm
05:57 4.5 °C 3 °C 1018.5 hPa Calm     90 % 0 mm
05:58 4.5 °C 3 °C 1018.5 hPa Calm     90 % 0 mm
06:03 4.4 °C 2.9 °C 1018.5 hPa Calm     90 % 0 mm
06:04 4.4 °C 2.9 °C 1018.5 hPa Calm     90 % 0 mm
06:09 4.1 °C 2.4 °C 1018.8 hPa Calm     89 % 0 mm
06:14 3.6 °C 2.1 °C 1019.2 hPa Calm     90 % 0 mm
06:19 3.3 °C 1.8 °C 1019.2 hPa Calm     90 % 0 mm
06:24 3.3 °C 1.9 °C 1019.2 hPa Calm     91 % 0 mm
06:28 3.2 °C 1.8 °C 1019.2 hPa Calm     91 % 0 mm
06:33 3.2 °C 2.1 °C 1019.2 hPa Calm     92 % 0 mm
06:34 3.2 °C 2.1 °C 1019.2 hPa Calm     92 % 0 mm
06:35 3.3 °C 2.1 °C 1019.2 hPa Calm     92 % 0 mm
06:40 3.3 °C 2.1 °C 1019.2 hPa Calm     92 % 0 mm
06:43 3.3 °C 2.3 °C 1019.2 hPa Calm     93 % 0 mm
06:46 3.4 °C 2.4 °C 1019.2 hPa Calm     93 % 0 mm
06:49 3.4 °C 2.4 °C 1019.2 hPa Calm     93 % 0 mm
06:53 3.6 °C 2.4 °C 1019.2 hPa Calm     92 % 0 mm
06:56 3.6 °C 2.4 °C 1019.2 hPa Calm     92 % 0 mm
06:58 3.6 °C 2.4 °C 1019.2 hPa Calm     92 % 0 mm
07:03 3.7 °C 2.3 °C 1019.2 hPa Calm     91 % 0 mm
07:05 3.6 °C 2.3 °C 1019.2 hPa Calm     91 % 0 mm
07:09 3.6 °C 2.2 °C 1019.2 hPa West 1.6 km/h   91 % 0 mm
07:14 3.6 °C 2.2 °C 1019.2 hPa West 1.9 km/h   91 % 0 mm
07:16 3.6 °C 2.2 °C 1019.2 hPa Calm     91 % 0 mm
07:20 3.6 °C 2.3 °C 1019.2 hPa Calm     91 % 0 mm
07:25 3.7 °C 2.2 °C 1019.2 hPa Calm     90 % 0 mm
07:26 3.7 °C 2.2 °C 1019.2 hPa Calm     90 % 0 mm
07:31 3.7 °C 2.2 °C 1019.2 hPa Calm     90 % 0 mm
07:34 3.6 °C 2.1 °C 1019.2 hPa Calm     90 % 0 mm
07:36 3.5 °C 2 °C 1019.2 hPa Calm     90 % 0 mm
07:39 3.4 °C 1.9 °C 1019.2 hPa Calm     90 % 0 mm
07:44 3.4 °C 1.9 °C 1019.5 hPa Calm     90 % 0 mm
07:45 3.4 °C 1.9 °C 1019.5 hPa Calm     90 % 0 mm
07:46 3.3 °C 1.8 °C 1019.5 hPa Calm     90 % 0 mm
07:51 3.3 °C 1.8 °C 1019.5 hPa Calm     90 % 0 mm
07:53 3.3 °C 1.8 °C 1019.5 hPa Calm     90 % 0 mm
07:58 3.3 °C 2 °C 1019.5 hPa Calm     91 % 0 mm
07:59 3.3 °C 2 °C 1019.9 hPa Calm     91 % 0 mm
08:04 3.6 °C 2.4 °C 1019.5 hPa Calm     92 % 0 mm
08:06 3.7 °C 2.5 °C 1019.5 hPa Calm     92 % 0 mm
08:10 4.2 °C 3 °C 1019.5 hPa Calm     92 % 0 mm
08:13 4.7 °C 3.2 °C 1019.9 hPa Calm     90 % 0 mm
08:18 5.4 °C 3.6 °C 1019.9 hPa East 1.9 km/h 1.9 km/h 88 % 0 mm
08:19 5.4 °C 3.6 °C 1019.9 hPa East 1.9 km/h 1.9 km/h 88 % 0 mm
08:24 5.9 °C 3.9 °C 1019.5 hPa Calm     87 % 0 mm
08:25 6.1 °C 4.1 °C 1019.5 hPa Calm   0.2 km/h 87 % 0 mm
08:27 6.2 °C 4.1 °C 1019.9 hPa ESE 1.9 km/h 1.9 km/h 86 % 0 mm
08:30 6.3 °C 3.9 °C 1019.9 hPa ESE 1.9 km/h 1.9 km/h 85 % 0 mm
08:32 6.3 °C 4 °C 1019.5 hPa ESE 1.9 km/h 1.9 km/h 85 % 0 mm
08:37 6.7 °C 4.4 °C 1019.5 hPa ESE 1.9 km/h   85 % 0 mm
08:40 7.1 °C 4.6 °C 1019.5 hPa ESE 1.9 km/h 1.9 km/h 84 % 0 mm
08:42 7.3 °C 4.6 °C 1019.9 hPa Calm     83 % 0 mm
08:47 8.1 °C 5.2 °C 1019.9 hPa Calm     82 % 0 mm
08:52 8.8 °C 5.6 °C 1019.9 hPa SE 1.9 km/h   80 % 0 mm
08:54 9.1 °C 5.5 °C 1019.9 hPa SE 3.7 km/h 3.7 km/h 78 % 0 mm
08:58 9.6 °C 5.7 °C 1019.9 hPa ESE 1.9 km/h 1.9 km/h 77 % 0 mm
09:00 9.7 °C 5.5 °C 1019.9 hPa South 1.9 km/h 1.9 km/h 75 % 0 mm
09:05 10.1 °C 5.5 °C 1020.2 hPa SSE 3.7 km/h 3.7 km/h 73 % 0 mm
09:07 10.2 °C 5.4 °C 1019.9 hPa SSE 3.7 km/h 3.7 km/h 72 % 0 mm
09:12 10.6 °C 5.6 °C 1019.9 hPa SE 3.7 km/h 3.7 km/h 71 % 0 mm
09:13 10.7 °C 5.8 °C 1020.2 hPa SE 3.7 km/h 3.7 km/h 72 % 0 mm
09:14 10.7 °C 5.7 °C 1020.2 hPa SSE 1.9 km/h   71 % 0 mm
09:19 11 °C 5.7 °C 1020.2 hPa East 1.9 km/h   70 % 0 mm
09:20 11.1 °C 5.8 °C 1020.2 hPa SE 1.9 km/h 1.9 km/h 70 % 0 mm
09:22 11.3 °C 6 °C 1020.2 hPa South 1.9 km/h 1.9 km/h 70 % 0 mm
09:27 11.5 °C 5.8 °C 1020.2 hPa Calm     68 % 0 mm
09:31 11.7 °C 5.8 °C 1020.2 hPa SE 1.9 km/h   67 % 0 mm
09:33 11.8 °C 5.7 °C 1020.2 hPa Calm     66 % 0 mm
09:36 12.1 °C 5.9 °C 1020.2 hPa Calm     66 % 0 mm
09:40 12.1 °C 5.4 °C 1020.2 hPa ENE 1.9 km/h   64 % 0 mm
09:44 12.3 °C 5.9 °C 1020.2 hPa SSE 1.9 km/h   65 % 0 mm
09:49 12.6 °C 5.7 °C 1020.2 hPa Calm   0.2 km/h 63 % 0 mm
09:50 12.7 °C 5.8 °C 1020.2 hPa NW 1.9 km/h 1.9 km/h 63 % 0 mm
09:55 12.3 °C 5.2 °C 1020.2 hPa Calm     62 % 0 mm
09:58 12.2 °C 5.2 °C 1020.2 hPa Calm     62 % 0 mm
10:01 12.2 °C 5.1 °C 1020.2 hPa Calm     62 % 0 mm
10:03 12.3 °C 5.3 °C 1020.2 hPa Calm     62 % 0 mm
10:06 12.6 °C 5.7 °C 1020.2 hPa Calm     63 % 0 mm
10:08 13 °C 5.9 °C 1020.2 hPa East 1.9 km/h   62 % 0 mm
10:13 13.3 °C 5.7 °C 1020.2 hPa East 1.9 km/h   60 % 0 mm
10:14 13.4 °C 6 °C 1020.2 hPa SSE 1.9 km/h 1.9 km/h 61 % 0 mm
10:18 13.8 °C 5.9 °C 1020.2 hPa Calm     59 % 0 mm
10:20 13.9 °C 5.8 °C 1020.2 hPa Calm     58 % 0 mm
10:25 14.2 °C 6.3 °C 1020.2 hPa SSE 1.9 km/h 1.9 km/h 59 % 0 mm
10:26 14.3 °C 6.4 °C 1020.2 hPa Calm     59 % 0 mm
10:31 14.7 °C 6 °C 1020.2 hPa Calm     56 % 0 mm
10:33 14.8 °C 6.4 °C 1020.2 hPa Calm     57 % 0 mm
10:35 14.9 °C 6 °C 1020.2 hPa Calm     55 % 0 mm
10:38 15.1 °C 6.3 °C 1020.2 hPa Calm     56 % 0 mm
10:41 15.1 °C 6.1 °C 1020.2 hPa North 1.9 km/h 1.9 km/h 55 % 0 mm
10:44 14.9 °C 5.9 °C 1020.2 hPa NW 1.9 km/h 1.9 km/h 55 % 0 mm
10:49 14.6 °C 5.9 °C 1020.2 hPa WNW 3.7 km/h 3.7 km/h 56 % 0 mm
10:54 14.5 °C 6.1 °C 1019.9 hPa Calm     57 % 0 mm
10:57 14.8 °C 6.1 °C 1019.9 hPa Calm     56 % 0 mm
11:02 15.2 °C 6.9 °C 1019.5 hPa Calm   0.5 km/h 58 % 0 mm
11:03 15.3 °C 6.8 °C 1019.5 hPa SE 1.9 km/h   57 % 0 mm
11:08 15.6 °C 6 °C 1019.5 hPa Calm     53 % 0 mm
11:10 15.6 °C 6.1 °C 1019.5 hPa SSE 1.9 km/h 1.9 km/h 53 % 0 mm
11:15 15.6 °C 5.8 °C 1019.2 hPa West 3.7 km/h 3.7 km/h 52 % 0 mm
11:17 15.6 °C 5.8 °C 1019.2 hPa Calm     52 % 0 mm
11:20 15.8 °C 6.2 °C 1019.2 hPa Calm     53 % 0 mm
11:23 15.9 °C 6.1 °C 1019.2 hPa Calm     52 % 0 mm
11:28 16.2 °C 6.3 °C 1019.2 hPa Calm     52 % 0 mm
11:33 16.7 °C 6.8 °C 1019.2 hPa Calm     52 % 0 mm
11:37 16.9 °C 6.4 °C 1019.2 hPa Calm     50 % 0 mm
11:38 17 °C 6.2 °C 1018.8 hPa NNW 1.9 km/h   49 % 0 mm
11:42 17.3 °C 6.4 °C 1018.8 hPa Calm     49 % 0 mm
11:47 17.6 °C 6.4 °C 1018.8 hPa Calm     48 % 0 mm
11:48 17.6 °C 6.2 °C 1018.8 hPa NW 1.6 km/h 1.6 km/h 47 % 0 mm
11:53 17.8 °C 6.1 °C 1018.8 hPa Calm   1.3 km/h 46 % 0 mm
11:54 17.9 °C 6.4 °C 1018.8 hPa WNW 1.9 km/h 1.9 km/h 47 % 0 mm
11:57 18 °C 6.5 °C 1018.8 hPa NW 1.9 km/h 1.9 km/h 47 % 0 mm
12:02 18.2 °C 6.4 °C 1018.8 hPa Calm     46 % 0 mm
12:03 18.3 °C 6.5 °C 1018.8 hPa SSW 1.9 km/h   46 % 0 mm
12:07 18.4 °C 6.3 °C 1018.5 hPa Calm     45 % 0 mm
12:09 18.5 °C 6.3 °C 1018.5 hPa WNW 3.7 km/h 3.7 km/h 45 % 0 mm
12:13 18.5 °C 6 °C 1018.5 hPa North 1.9 km/h   44 % 0 mm
12:39 19 °C 5.8 °C 1018.2 hPa Calm     42 % 0 mm
12:40 19 °C 6.4 °C 1018.2 hPa Calm     44 % 0 mm
12:45 18.9 °C 5.7 °C 1017.8 hPa Calm     42 % 0 mm
12:48 18.8 °C 5.6 °C 1017.8 hPa Calm     42 % 0 mm
12:51 18.8 °C 6.3 °C 1017.8 hPa Calm     44 % 0 mm
12:55 18.9 °C 6.1 °C 1017.8 hPa Calm     43 % 0 mm
12:58 18.9 °C 6.4 °C 1017.8 hPa Calm     44 % 0 mm
13:01 18.9 °C 5.7 °C 1017.8 hPa Calm     42 % 0 mm
13:06 18.9 °C 5.4 °C 1017.8 hPa Calm   0.3 km/h 41 % 0 mm
13:09 19 °C 5.8 °C 1017.8 hPa Calm     42 % 0 mm
13:14 19 °C 5.8 °C 1017.8 hPa Calm     42 % 0 mm
13:18 19.1 °C 5.9 °C 1017.8 hPa Calm     42 % 0 mm
13:23 19 °C 5.4 °C 1017.8 hPa Calm     41 % 0 mm
13:26 18.9 °C 5.7 °C 1017.8 hPa Calm     42 % 0 mm
13:31 18.9 °C 5.7 °C 1017.8 hPa Calm     42 % 0 mm
13:36 18.9 °C 6.1 °C 1017.8 hPa Calm     43 % 0 mm
13:39 18.9 °C 5.7 °C 1017.8 hPa Calm     42 % 0 mm
13:44 18.9 °C 6.1 °C 1017.8 hPa Calm     43 % 0 mm
13:47 18.9 °C 6.1 °C 1017.8 hPa Calm   0.5 km/h 43 % 0 mm
13:49 18.8 °C 6.3 °C 1017.8 hPa Calm     44 % 0 mm
13:53 18.8 °C 6.6 °C 1017.8 hPa Calm     45 % 0 mm
13:55 18.8 °C 5.6 °C 1017.8 hPa Calm     42 % 0 mm
13:58 18.8 °C 5.6 °C 1017.8 hPa Calm     42 % 0 mm
14:03 18.8 °C 5.6 °C 1017.5 hPa WNW 1.9 km/h   42 % 0 mm
14:04 18.8 °C 5.6 °C 1017.8 hPa Calm     42 % 0 mm
14:09 18.8 °C 5.9 °C 1017.8 hPa Calm     43 % 0 mm
14:14 18.7 °C 5.8 °C 1017.5 hPa Calm     43 % 0 mm
14:17 18.6 °C 5.8 °C 1017.5 hPa Calm     43 % 0 mm
14:22 18.6 °C 6.4 °C 1017.5 hPa Calm     45 % 0 mm
14:23 18.6 °C 6.1 °C 1017.5 hPa Calm     44 % 0 mm
14:28 18.8 °C 5.9 °C 1017.5 hPa WSW 1.9 km/h 1.9 km/h 43 % 0 mm
14:31 18.9 °C 6.1 °C 1017.5 hPa Calm     43 % 0 mm
14:32 18.9 °C 5.7 °C 1017.5 hPa Calm     42 % 0 mm
14:37 19.1 °C 5.6 °C 1017.5 hPa North 3.7 km/h 3.7 km/h 41 % 0 mm
14:41 19.2 °C 5.3 °C 1017.5 hPa WNW 1.6 km/h 1.6 km/h 40 % 0 mm
14:46 19.3 °C 5 °C 1017.5 hPa NW 1.9 km/h 1.9 km/h 39 % 0 mm
14:47 19.3 °C 5.4 °C 1017.5 hPa Calm     40 % 0 mm
14:52 19.4 °C 5.1 °C 1017.5 hPa Calm     39 % 0 mm
14:57 19.5 °C 4.8 °C 1017.5 hPa NW 1.9 km/h 1.9 km/h 38 % 0 mm
14:59 19.6 °C 5.2 °C 1017.5 hPa Calm   0.6 km/h 39 % 0 mm
15:04 19.6 °C 4.5 °C 1017.5 hPa WNW 1.9 km/h   37 % 0 mm
15:06 19.6 °C 4.9 °C 1017.5 hPa WNW 1.9 km/h   38 % 0 mm
15:11 19.6 °C 4.9 °C 1017.2 hPa Calm     38 % 0 mm
15:16 19.7 °C 4.6 °C 1017.2 hPa WNW 1.9 km/h 1.9 km/h 37 % 0 mm
15:17 19.7 °C 4.6 °C 1017.2 hPa WNW 1.9 km/h   37 % 0 mm
15:22 19.7 °C 4.6 °C 1017.2 hPa Calm     37 % 0 mm
15:24 19.7 °C 4.6 °C 1017.2 hPa NNW 1.9 km/h 1.9 km/h 37 % 0 mm
15:28 19.6 °C 4.5 °C 1017.2 hPa Calm     37 % 0 mm
15:30 19.6 °C 4.4 °C 1017.2 hPa Calm     37 % 0 mm
15:31 19.6 °C 4.4 °C 1017.2 hPa Calm     37 % 0 mm
15:35 19.6 °C 4.4 °C 1017.2 hPa Calm     37 % 0 mm
15:37 19.6 °C 4.4 °C 1017.2 hPa Calm     37 % 0 mm
15:42 19.6 °C 5.2 °C 1017.2 hPa NW 1.9 km/h 1.9 km/h 39 % 0 mm
15:46 19.6 °C 5.2 °C 1017.2 hPa Calm   0.2 km/h 39 % 0 mm
15:51 19.4 °C 5.4 °C 1017.2 hPa WNW 1.9 km/h 1.9 km/h 40 % 0 mm
15:54 19.3 °C 5 °C 1017.2 hPa WNW 1.9 km/h   39 % 0 mm
15:57 19.3 °C 5.3 °C 1017.2 hPa Calm     40 % 0 mm
15:59 19.2 °C 5.3 °C 1017.2 hPa WNW 1.9 km/h   40 % 0 mm
16:04 19.1 °C 5.5 °C 1017.2 hPa Calm     41 % 0 mm
16:09 18.9 °C 5.7 °C 1017.2 hPa Calm     42 % 0 mm
16:14 18.7 °C 5.5 °C 1017.2 hPa Calm     42 % 0 mm
16:15 18.6 °C 5.4 °C 1017.5 hPa Calm     42 % 0 mm
16:20 18.3 °C 5.5 °C 1017.5 hPa Calm     43 % 0 mm
16:21 18.2 °C 5.4 °C 1017.5 hPa Calm     43 % 0 mm
16:26 17.8 °C 5.4 °C 1017.5 hPa Calm     44 % 0 mm
16:29 17.6 °C 5.5 °C 1017.5 hPa Calm     45 % 0 mm
16:30 17.6 °C 5.5 °C 1017.5 hPa Calm     45 % 0 mm
16:35 17.2 °C 5.1 °C 1017.5 hPa Calm     45 % 0 mm
16:36 17.1 °C 5.4 °C 1017.5 hPa Calm     46 % 0 mm
16:41 16.7 °C 5.3 °C 1017.5 hPa Calm     47 % 0 mm
16:46 16.1 °C 5.4 °C 1017.5 hPa Calm     49 % 0 mm
16:47 16 °C 5.6 °C 1017.5 hPa Calm     50 % 0 mm
16:48 15.9 °C 5.5 °C 1017.5 hPa Calm     50 % 0 mm
16:53 15.5 °C 5.7 °C 1017.8 hPa Calm     52 % 0 mm
16:54 15.4 °C 5.9 °C 1017.8 hPa Calm     53 % 0 mm
16:58 15.2 °C 6.4 °C 1017.8 hPa Calm     56 % 0 mm
17:01 15 °C 6.3 °C 1017.8 hPa Calm     56 % 0 mm
17:06 14.6 °C 5.6 °C 1017.8 hPa Calm     55 % 0 mm
17:11 14.2 °C 5.8 °C 1017.8 hPa Calm     57 % 0 mm
17:14 13.9 °C 5.6 °C 1018.2 hPa Calm     57 % 0 mm
17:19 13.7 °C 5.6 °C 1018.2 hPa Calm     58 % 0 mm
17:22 13.4 °C 5.6 °C 1018.2 hPa Calm     59 % 0 mm
17:23 13.4 °C 5.6 °C 1018.2 hPa Calm     59 % 0 mm
17:28 13.1 °C 5.4 °C 1018.2 hPa Calm     60 % 0 mm
17:29 13 °C 5.7 °C 1018.2 hPa Calm     61 % 0 mm
17:34 12.7 °C 5.6 °C 1018.5 hPa Calm     62 % 0 mm
17:35 12.6 °C 5.5 °C 1018.5 hPa Calm     62 % 0 mm
17:36 12.5 °C 5.4 °C 1018.5 hPa Calm     62 % 0 mm
17:41 12.3 °C 5.5 °C 1018.5 hPa Calm     63 % 0 mm
17:45 12.2 °C 5.6 °C 1018.5 hPa Calm     64 % 0 mm
17:50 11.9 °C 5.6 °C 1018.5 hPa Calm     65 % 0 mm
17:54 11.8 °C 5.7 °C 1018.8 hPa Calm     66 % 0 mm
17:56 11.8 °C 5.6 °C 1018.8 hPa Calm     66 % 0 mm
18:01 11.6 °C 5.2 °C 1018.8 hPa Calm     65 % 0 mm
18:04 11.6 °C 5.4 °C 1018.8 hPa Calm     66 % 0 mm
18:06 11.4 °C 5.3 °C 1018.8 hPa Calm     66 % 0 mm
18:11 11.2 °C 5.3 °C 1018.8 hPa Calm     67 % 0 mm
18:14 11.1 °C 5.2 °C 1018.8 hPa Calm     67 % 0 mm
18:17 10.9 °C 5.3 °C 1018.8 hPa Calm     68 % 0 mm
18:20 10.8 °C 5.4 °C 1018.8 hPa Calm     69 % 0 mm
18:25 10.6 °C 5.3 °C 1019.2 hPa Calm     70 % 0 mm
18:26 10.5 °C 5.3 °C 1019.2 hPa Calm     70 % 0 mm
18:31 10.4 °C 5.3 °C 1019.2 hPa Calm     71 % 0 mm
18:36 10.3 °C 5.3 °C 1019.2 hPa Calm     71 % 0 mm
18:37 10.3 °C 5.3 °C 1019.2 hPa Calm     71 % 0 mm
18:42 10.2 °C 5.2 °C 1019.2 hPa Calm     71 % 0 mm
18:43 10.2 °C 5.3 °C 1019.5 hPa Calm     72 % 0 mm
18:46 10.1 °C 5.2 °C 1019.5 hPa Calm     72 % 0 mm
18:49 9.9 °C 5.1 °C 1019.5 hPa Calm     72 % 0 mm
18:54 9.7 °C 5.1 °C 1019.5 hPa Calm     73 % 0 mm
18:55 9.7 °C 5.1 °C 1019.5 hPa Calm     73 % 0 mm
18:59 9.6 °C 5 °C 1019.5 hPa Calm     73 % 0 mm
19:03 9.4 °C 4.8 °C 1019.5 hPa Calm     73 % 0 mm
19:08 9.4 °C 5 °C 1019.5 hPa Calm     74 % 0 mm
19:13 9.4 °C 4.8 °C 1019.5 hPa Calm     73 % 0 mm
19:14 9.4 °C 4.8 °C 1019.5 hPa Calm     73 % 0 mm
19:19 9.3 °C 4.7 °C 1019.9 hPa Calm     73 % 0 mm
19:20 9.3 °C 4.7 °C 1019.9 hPa Calm     73 % 0 mm
19:25 9.2 °C 4.8 °C 1019.9 hPa Calm     74 % 0 mm
19:26 9.1 °C 4.7 °C 1019.9 hPa Calm     74 % 0 mm
19:31 9 °C 4.8 °C 1019.9 hPa WNW 1.9 km/h 1.9 km/h 75 % 0 mm
19:35 8.7 °C 4.5 °C 1019.9 hPa Calm     75 % 0 mm
19:40 8.3 °C 4.5 °C 1019.9 hPa Calm     77 % 0 mm
19:45 8.1 °C 4.5 °C 1019.9 hPa Calm     78 % 0 mm
19:47 8.1 °C 4.4 °C 1020.2 hPa Calm     78 % 0 mm
19:51 8.1 °C 4.6 °C 1020.2 hPa Calm     79 % 0 mm
19:56 8.2 °C 4.6 °C 1020.2 hPa Calm     78 % 0 mm
19:58 8.2 °C 4.6 °C 1020.2 hPa Calm     78 % 0 mm
20:03 8.2 °C 4.6 °C 1020.2 hPa Calm     78 % 0 mm
20:05 8.1 °C 4.4 °C 1020.2 hPa Calm     78 % 0 mm
20:11 7.9 °C 4.5 °C 1020.2 hPa Calm     79 % 0 mm
20:13 7.9 °C 4.4 °C 1020.2 hPa Calm     79 % 0 mm
20:15 7.8 °C 4.4 °C 1020.2 hPa Calm     79 % 0 mm
20:18 7.7 °C 4.3 °C 1020.2 hPa Calm     79 % 0 mm
20:21 7.6 °C 4.2 °C 1020.2 hPa Calm     79 % 0 mm
20:24 7.6 °C 4.3 °C 1020.2 hPa Calm     80 % 0 mm
20:26 7.5 °C 4.3 °C 1020.2 hPa Calm     80 % 0 mm
20:29 7.3 °C 4.1 °C 1020.2 hPa Calm     80 % 0 mm
20:31 7.3 °C 4.2 °C 1020.2 hPa Calm     81 % 0 mm
20:35 7.2 °C 4.2 °C 1020.2 hPa Calm     81 % 0 mm
20:38 7.2 °C 4.1 °C 1020.2 hPa Calm     81 % 0 mm
20:40 7.1 °C 4.1 °C 1020.2 hPa Calm     81 % 0 mm
20:44 7.1 °C 4.1 °C 1020.5 hPa Calm     81 % 0 mm
20:46 7.2 °C 4.2 °C 1020.2 hPa Calm     81 % 0 mm
20:51 7.3 °C 4.1 °C 1020.5 hPa Calm     80 % 0 mm
20:52 7.3 °C 4.1 °C 1020.5 hPa Calm     80 % 0 mm
20:55 7.3 °C 4.1 °C 1020.5 hPa Calm     80 % 0 mm
20:58 7.3 °C 4.1 °C 1020.5 hPa Calm     80 % 0 mm
21:03 7.4 °C 4.2 °C 1020.2 hPa Calm     80 % 0 mm
21:04 7.4 °C 4.2 °C 1020.5 hPa Calm     80 % 0 mm
21:09 7.3 °C 3.9 °C 1020.2 hPa Calm     79 % 0 mm
21:11 7.3 °C 4.1 °C 1020.5 hPa Calm     80 % 0 mm
21:16 7.1 °C 3.9 °C 1020.5 hPa Calm     80 % 0 mm
21:17 7.1 °C 3.8 °C 1020.5 hPa Calm     80 % 0 mm
21:22 6.9 °C 3.7 °C 1020.5 hPa Calm     80 % 0 mm
21:23 6.9 °C 3.7 °C 1020.5 hPa Calm     80 % 0 mm
21:28 6.7 °C 3.6 °C 1020.5 hPa Calm     81 % 0 mm
21:33 6.5 °C 3.7 °C 1020.5 hPa Calm     82 % 0 mm
21:34 6.5 °C 3.7 °C 1020.5 hPa Calm     82 % 0 mm
21:39 6.4 °C 3.8 °C 1020.5 hPa Calm     83 % 0 mm
21:40 6.4 °C 3.7 °C 1020.5 hPa Calm     83 % 0 mm
21:45 6.3 °C 3.6 °C 1020.5 hPa Calm     83 % 0 mm
21:49 6.2 °C 3.7 °C 1020.5 hPa Calm     84 % 0 mm
21:50 6.2 °C 3.7 °C 1020.5 hPa Calm     84 % 0 mm
21:55 6.2 °C 3.7 °C 1020.5 hPa Calm     84 % 0 mm
21:58 6.2 °C 3.7 °C 1020.5 hPa Calm     84 % 0 mm
22:03 6 °C 3.3 °C 1020.5 hPa Calm     83 % 0 mm
22:07 6 °C 3.7 °C 1020.5 hPa Calm     85 % 0 mm
22:12 5.9 °C 3.4 °C 1020.5 hPa Calm     84 % 0 mm
22:13 5.9 °C 3.4 °C 1020.9 hPa Calm     84 % 0 mm
22:18 5.8 °C 3.3 °C 1020.9 hPa Calm     84 % 0 mm
22:23 5.6 °C 3.1 °C 1020.9 hPa Calm     84 % 0 mm
22:27 5.4 °C 2.9 °C 1020.9 hPa Calm     84 % 0 mm
22:32 5.2 °C 2.7 °C 1021.2 hPa Calm     84 % 0 mm
22:35 5.1 °C 2.7 °C 1021.2 hPa Calm     85 % 0 mm
22:40 5.1 °C 2.9 °C 1021.2 hPa Calm     86 % 0 mm
22:42 5.1 °C 3.1 °C 1021.2 hPa Calm     87 % 0 mm
22:43 5.1 °C 3.1 °C 1021.2 hPa Calm     87 % 0 mm
22:47 5.1 °C 3.1 °C 1021.2 hPa Calm     87 % 0 mm
22:52 5.1 °C 3.1 °C 1021.6 hPa Calm     87 % 0 mm
22:54 5.1 °C 3.1 °C 1021.6 hPa Calm     87 % 0 mm
22:59 5 °C 3 °C 1021.6 hPa Calm     87 % 0 mm
23:02 4.9 °C 3.1 °C 1021.6 hPa Calm     88 % 0 mm
23:06 4.9 °C 3.1 °C 1021.6 hPa Calm     88 % 0 mm
23:09 4.8 °C 2.8 °C 1021.6 hPa Calm     87 % 0 mm
23:14 4.8 °C 2.9 °C 1021.6 hPa Calm     88 % 0 mm
23:20 4.7 °C 2.9 °C 1021.9 hPa Calm     88 % 0 mm
23:21 4.7 °C 2.8 °C 1021.9 hPa Calm     88 % 0 mm
23:23 4.7 °C 2.8 °C 1021.9 hPa Calm     88 % 0 mm
23:26 4.6 °C 2.8 °C 1021.9 hPa Calm     88 % 0 mm
23:32 4.6 °C 2.8 °C 1021.9 hPa Calm     88 % 0 mm
23:37 4.5 °C 2.7 °C 1021.9 hPa Calm     88 % 0 mm
23:38 4.5 °C 2.7 °C 1021.9 hPa Calm     88 % 0 mm
23:42 4.4 °C 2.6 °C 1022.2 hPa Calm     88 % 0 mm
23:47 4.4 °C 2.6 °C 1022.2 hPa Calm     88 % 0 mm
23:48 4.3 °C 2.5 °C 1021.9 hPa Calm     88 % 0 mm
23:49 4.3 °C 2.5 °C 1022.2 hPa Calm     88 % 0 mm
23:54 4.3 °C 2.7 °C 1022.2 hPa Calm     89 % 0 mm
23:55 4.3 °C 2.7 °C 1021.9 hPa Calm     89 % 0 mm
23:59 4.4 °C 2.8 °C 1022.2 hPa Calm     89 % 0 mm
Park Place, Exeter, Tulare County, California, USA
Compliments of Weather Underground - 3.5 mb